Time;durP1;ratioP1;P1;durP2;ratioP2;P2;SDS_P1;SDS_P2;PMS_P1;PMS_P2;Temp;Humidity;BMP_temperature;BMP_pressure;BME280_temperature;BME280_humidity;BME280_pressure;Samples;Min_cycle;Max_cycle;Signal;HPM_P1;HPM_P2
2023/03/29 00:00:34;;;;;;;7.18;2.40;;;6.50;99.90;;;;;;5065920;28;20036;-92
2023/03/29 00:03:00;;;;;;;6.80;2.35;;;6.50;99.90;;;;;;5080609;28;20028;-91
2023/03/29 00:05:26;;;;;;;6.40;2.60;;;6.50;99.90;;;;;;5066828;28;20044;-91
2023/03/29 00:08:00;;;;;;;7.38;2.50;;;6.50;99.90;;;;;;5081698;28;20032;-91
2023/03/29 00:10:27;;;;;;;7.53;3.30;;;6.50;99.90;;;;;;5100737;28;20033;-91
2023/03/29 00:12:52;;;;;;;6.13;2.00;;;6.50;99.90;;;;;;5099248;28;20089;-90
2023/03/29 00:15:18;;;;;;;7.15;2.55;;;6.50;99.90;;;;;;5069775;28;20040;-90
2023/03/29 00:17:44;;;;;;;5.78;2.22;;;6.50;99.90;;;;;;5066165;28;20119;-90
2023/03/29 00:20:11;;;;;;;6.93;2.53;;;6.50;99.90;;;;;;5081709;28;20145;-91
2023/03/29 00:22:38;;;;;;;7.13;2.75;;;6.50;99.90;;;;;;5084648;28;20043;-91
2023/03/29 00:25:06;;;;;;;8.10;2.67;;;6.40;99.90;;;;;;5063390;28;20035;-90
2023/03/29 00:27:32;;;;;;;8.23;2.53;;;6.40;99.90;;;;;;5103403;28;20032;-90
2023/03/29 00:29:58;;;;;;;8.95;2.92;;;6.40;99.90;;;;;;5075427;28;20040;-91
2023/03/29 00:32:24;;;;;;;8.32;2.90;;;6.40;99.90;;;;;;5074978;28;20036;-89
2023/03/29 00:34:50;;;;;;;7.72;2.60;;;6.40;99.90;;;;;;5091379;28;20036;-91
2023/03/29 00:37:17;;;;;;;10.90;3.05;;;6.40;99.90;;;;;;5075355;28;20046;-90
2023/03/29 00:39:44;;;;;;;8.93;2.83;;;6.40;99.90;;;;;;5108234;28;20040;-90
2023/03/29 00:42:15;;;;;;;10.07;2.95;;;6.40;99.90;;;;;;5091685;28;20055;-91
2023/03/29 00:45:05;;;;;;;13.80;3.55;;;6.40;99.90;;;;;;5074955;28;20071;-90
2023/03/29 00:47:41;;;;;;;8.68;2.83;;;6.40;99.90;;;;;;5090745;28;20104;-90
2023/03/29 00:50:25;;;;;;;8.40;2.63;;;6.40;99.90;;;;;;5074763;28;20051;-91
2023/03/29 00:52:58;;;;;;;7.20;2.75;;;6.30;99.90;;;;;;5108632;28;20598;-91
2023/03/29 00:55:26;;;;;;;7.80;3.00;;;6.30;99.90;;;;;;5074669;28;20078;-91
2023/03/29 00:57:54;;;;;;;8.63;4.63;;;6.30;99.90;;;;;;5074493;28;20071;-92
2023/03/29 01:00:26;;;;;;;10.48;3.45;;;6.40;99.90;;;;;;5073688;28;20039;-92
2023/03/29 01:02:58;;;;;;;7.00;2.80;;;6.40;99.90;;;;;;5075071;28;20485;-92
2023/03/29 01:05:47;;;;;;;8.25;3.15;;;6.40;99.90;;;;;;5073754;28;20028;-92
2023/03/29 01:08:20;;;;;;;8.02;3.58;;;6.40;99.90;;;;;;5071184;28;20075;-91
2023/03/29 01:10:48;;;;;;;;;;;6.40;99.90;;;;;;5077985;28;20040;-91
2023/03/29 01:13:25;;;;;;;8.50;3.15;;;6.40;99.90;;;;;;5074018;28;19915;-91
2023/03/29 01:15:53;;;;;;;8.13;2.65;;;6.30;99.90;;;;;;5074729;28;20036;-92
2023/03/29 01:18:21;;;;;;;8.63;2.78;;;6.40;99.90;;;;;;5073666;28;20040;-92
2023/03/29 01:21:31;;;;;;;8.75;3.13;;;6.30;99.90;;;;;;5091611;28;20042;-91
2023/03/29 01:24:24;;;;;;;7.55;3.35;;;6.30;99.90;;;;;;4993886;28;20108;-91
2023/03/29 01:27:11;;;;;;;10.48;3.42;;;6.30;99.90;;;;;;4993553;28;20186;-91
2023/03/29 01:30:00;;;;;;;9.32;3.55;;;6.30;99.90;;;;;;4976615;28;20103;-91
2023/03/29 01:32:43;;;;;;;9.85;3.97;;;6.40;99.90;;;;;;4993549;28;20104;-92
2023/03/29 01:35:15;;;;;;;11.65;4.30;;;6.40;99.90;;;;;;4992811;28;20209;-91
2023/03/29 01:37:59;;;;;;;9.48;3.53;;;6.30;99.90;;;;;;4990453;28;20053;-92
2023/03/29 01:40:27;;;;;;;8.55;3.28;;;6.40;99.90;;;;;;4990976;28;20486;-91
2023/03/29 01:42:56;;;;;;;9.77;3.72;;;6.30;99.90;;;;;;4988229;28;20068;-92
2023/03/29 01:45:33;;;;;;;9.00;3.63;;;6.30;99.90;;;;;;4994206;28;20491;-91
2023/03/29 01:48:29;;;;;;;10.43;4.18;;;6.40;99.90;;;;;;4977237;28;20057;-90
2023/03/29 01:51:10;;;;;;;10.73;4.53;;;6.30;99.90;;;;;;4993473;28;20436;-91
2023/03/29 01:53:51;;;;;;;12.43;4.40;;;6.30;99.90;;;;;;4999894;28;20127;-92
2023/03/29 01:56:21;;;;;;;10.05;4.20;;;6.30;99.90;;;;;;5074129;28;20028;-91
2023/03/29 01:58:52;;;;;;;10.70;4.65;;;6.40;99.90;;;;;;5074256;28;20053;-92
2023/03/29 02:01:24;;;;;;;10.05;4.70;;;6.30;99.90;;;;;;5073626;28;20059;-91
2023/03/29 02:03:53;;;;;;;12.82;6.28;;;6.30;99.90;;;;;;5108442;28;20036;-91
2023/03/29 02:06:22;;;;;;;11.23;5.07;;;6.30;99.90;;;;;;5090527;28;20055;-90
2023/03/29 02:08:50;;;;;;;11.98;6.05;;;6.40;99.90;;;;;;5052997;28;20048;-92
2023/03/29 02:11:16;;;;;;;11.25;5.25;;;6.40;99.90;;;;;;5069975;28;20079;-90
2023/03/29 02:13:41;;;;;;;12.88;5.10;;;6.40;99.90;;;;;;5106353;28;20039;-91
2023/03/29 02:16:12;;;;;;;13.05;5.63;;;6.40;99.90;;;;;;5073437;28;20523;-91
2023/03/29 02:18:44;;;;;;;13.75;6.55;;;6.30;99.90;;;;;;5071943;28;20472;-91
2023/03/29 02:21:25;;;;;;;12.23;6.33;;;6.30;99.90;;;;;;5073105;28;20035;-91
2023/03/29 02:23:54;;;;;;;13.80;6.15;;;6.30;99.90;;;;;;5072613;28;20305;-91
2023/03/29 02:26:21;;;;;;;11.95;6.10;;;6.40;99.90;;;;;;5089912;28;20028;-90
2023/03/29 02:28:47;;;;;;;12.50;6.03;;;6.30;99.90;;;;;;5073174;28;20040;-91
2023/03/29 02:31:29;;;;;;;12.95;6.30;;;6.30;99.90;;;;;;5072587;28;20035;-91
2023/03/29 02:34:19;;;;;;;12.57;6.20;;;6.30;99.90;;;;;;5107243;28;20043;-91
2023/03/29 02:36:50;;;;;;;14.52;6.55;;;6.30;99.90;;;;;;5090250;28;20131;-91
2023/03/29 02:39:18;;;;;;;12.40;6.57;;;6.30;99.90;;;;;;5072229;28;20135;-91
2023/03/29 02:41:47;;;;;;;15.90;7.40;;;6.30;99.90;;;;;;5073054;28;20040;-91
2023/03/29 02:44:17;;;;;;;14.40;6.90;;;6.30;99.90;;;;;;5072715;28;20032;-91
2023/03/29 02:46:43;;;;;;;16.70;7.22;;;6.30;99.90;;;;;;5089293;28;20400;-91
2023/03/29 02:49:10;;;;;;;12.20;7.15;;;6.40;99.90;;;;;;5072253;28;20048;-91
2023/03/29 02:51:37;;;;;;;13.60;7.03;;;6.30;99.90;;;;;;5071685;28;20047;-92
2023/03/29 02:54:14;;;;;;;15.95;7.60;;;6.30;99.90;;;;;;5089843;28;20442;-91
2023/03/29 02:56:48;;;;;;;13.27;6.22;;;6.40;99.90;;;;;;5072568;28;20039;-91
2023/03/29 02:59:18;;;;;;;15.80;7.05;;;6.30;99.90;;;;;;5105980;28;20086;-91
2023/03/29 03:01:44;;;;;;;15.07;8.15;;;6.40;99.90;;;;;;5072578;28;20058;-92
2023/03/29 03:04:11;;;;;;;16.00;7.18;;;6.40;99.90;;;;;;5089609;28;20081;-92
2023/03/29 03:06:37;;;;;;;16.88;7.15;;;6.30;99.90;;;;;;5072783;28;20074;-92
2023/03/29 03:09:04;;;;;;;14.60;8.00;;;6.40;99.90;;;;;;5088442;28;20043;-90
2023/03/29 03:11:31;;;;;;;15.15;6.90;;;6.40;99.90;;;;;;5071946;28;20111;-91
2023/03/29 03:13:56;;;;;;;14.75;7.38;;;6.40;99.90;;;;;;5072728;28;20040;-91
2023/03/29 03:16:22;;;;;;;15.43;7.13;;;6.40;99.90;;;;;;5072534;28;20788;-91
2023/03/29 03:18:50;;;;;;;11.88;6.43;;;6.40;99.90;;;;;;5072560;28;20048;-91
2023/03/29 03:21:17;;;;;;;14.10;7.63;;;6.40;99.90;;;;;;5073537;28;20044;-91
2023/03/29 03:23:44;;;;;;;15.73;7.72;;;6.40;99.90;;;;;;5088934;28;20575;-91
2023/03/29 03:26:10;;;;;;;15.10;7.57;;;6.40;99.90;;;;;;5090509;28;20044;-91
2023/03/29 03:28:36;;;;;;;13.40;7.38;;;6.40;99.90;;;;;;5072148;28;20493;-90
2023/03/29 03:31:02;;;;;;;15.35;6.80;;;6.40;99.90;;;;;;5064593;28;20109;-91
2023/03/29 03:33:27;;;;;;;12.63;6.82;;;6.40;99.90;;;;;;5106810;28;20040;-91
2023/03/29 03:36:01;;;;;;;15.40;7.43;;;6.40;99.90;;;;;;5106330;28;20543;-91
2023/03/29 03:38:30;;;;;;;14.50;7.35;;;6.40;99.90;;;;;;5073487;28;20068;-91
2023/03/29 03:40:57;;;;;;;13.52;6.70;;;6.40;99.90;;;;;;5089484;28;20508;-91
2023/03/29 03:43:22;;;;;;;13.05;6.88;;;6.40;99.90;;;;;;5073428;28;20123;-90
2023/03/29 03:45:48;;;;;;;13.82;7.15;;;6.40;99.90;;;;;;5073204;28;20585;-92
2023/03/29 03:48:14;;;;;;;13.07;6.88;;;6.40;99.90;;;;;;5088964;28;20024;-91
2023/03/29 03:50:39;;;;;;;14.40;7.28;;;6.50;99.90;;;;;;5089169;28;20554;-91
2023/03/29 03:53:06;;;;;;;12.15;6.47;;;6.50;99.90;;;;;;5071317;28;20040;-91
2023/03/29 03:55:32;;;;;;;14.20;7.03;;;6.50;99.90;;;;;;5071586;28;20082;-92
2023/03/29 03:57:58;;;;;;;16.13;7.00;;;6.50;99.90;;;;;;5072992;28;20039;-91
2023/03/29 04:00:24;;;;;;;13.50;6.38;;;6.50;99.90;;;;;;5092273;28;20123;-91
2023/03/29 04:02:53;;;;;;;15.98;7.88;;;6.50;99.90;;;;;;5075570;28;20052;-91
2023/03/29 04:05:19;;;;;;;14.85;7.13;;;6.50;99.90;;;;;;5074691;28;20050;-91
2023/03/29 04:07:44;;;;;;;14.05;6.40;;;6.50;99.90;;;;;;5075316;28;20040;-90
2023/03/29 04:10:10;;;;;;;13.35;7.28;;;6.50;99.90;;;;;;5109133;28;20035;-92
2023/03/29 04:12:36;;;;;;;12.77;6.10;;;6.50;99.90;;;;;;5108027;28;20036;-90
2023/03/29 04:15:02;;;;;;;16.55;6.70;;;6.50;99.90;;;;;;5092063;28;20095;-91
2023/03/29 04:17:28;;;;;;;12.95;6.38;;;6.50;99.90;;;;;;5090613;28;20083;-92
2023/03/29 04:19:54;;;;;;;12.57;6.78;;;6.50;99.90;;;;;;5091972;28;20076;-91
2023/03/29 04:22:20;;;;;;;15.25;6.40;;;6.50;99.90;;;;;;5091660;28;20040;-91
2023/03/29 04:24:45;;;;;;;13.02;6.53;;;6.50;99.90;;;;;;5074431;28;20084;-90
2023/03/29 04:27:11;;;;;;;12.48;6.68;;;6.50;99.90;;;;;;5075092;28;20126;-91
2023/03/29 04:29:36;;;;;;;13.95;6.93;;;6.50;99.90;;;;;;5073678;28;20449;-91
2023/03/29 04:32:02;;;;;;;13.18;6.38;;;6.50;99.90;;;;;;5074852;28;20036;-92
2023/03/29 04:34:28;;;;;;;13.77;7.32;;;6.50;99.90;;;;;;5074801;28;20036;-91
2023/03/29 04:36:53;;;;;;;13.35;6.47;;;6.60;99.90;;;;;;5074909;28;20093;-91
2023/03/29 04:39:19;;;;;;;13.75;6.78;;;6.50;99.90;;;;;;5108382;28;20457;-91
2023/03/29 04:41:46;;;;;;;14.32;6.22;;;6.60;99.90;;;;;;5074310;28;20605;-91
2023/03/29 04:44:13;;;;;;;15.30;7.03;;;6.50;99.90;;;;;;5075350;28;20127;-91
2023/03/29 04:46:39;;;;;;;12.60;6.45;;;6.50;99.90;;;;;;5092371;28;20132;-91
2023/03/29 04:49:05;;;;;;;14.68;6.43;;;6.50;99.90;;;;;;5074731;28;20046;-90
2023/03/29 04:51:32;;;;;;;15.60;6.43;;;6.50;99.90;;;;;;5074868;28;20075;-91
2023/03/29 04:53:58;;;;;;;11.82;6.22;;;6.60;99.90;;;;;;5108313;28;20039;-91
2023/03/29 04:56:23;;;;;;;13.63;7.07;;;6.50;99.90;;;;;;5074523;28;20044;-92
2023/03/29 04:58:50;;;;;;;13.80;6.65;;;6.50;99.90;;;;;;5074789;28;20127;-91
2023/03/29 05:01:16;;;;;;;13.90;6.93;;;6.50;99.90;;;;;;5073843;28;20043;-92
2023/03/29 05:03:42;;;;;;;15.18;6.15;;;6.50;99.90;;;;;;5074824;28;20040;-91
2023/03/29 05:06:10;;;;;;;14.20;6.85;;;6.50;99.90;;;;;;5091514;28;20032;-92
2023/03/29 05:08:38;;;;;;;14.15;7.22;;;6.40;99.90;;;;;;5090584;28;20055;-91
2023/03/29 05:11:08;;;;;;;13.75;6.50;;;6.40;99.90;;;;;;5090813;28;20536;-91
2023/03/29 05:13:34;;;;;;;12.38;6.28;;;6.40;99.90;;;;;;5073689;28;20028;-91
2023/03/29 05:16:00;;;;;;;14.38;7.78;;;6.40;99.90;;;;;;5107890;28;20066;-91
2023/03/29 05:18:27;;;;;;;14.10;6.97;;;6.40;99.90;;;;;;5106872;28;20035;-91
2023/03/29 05:20:53;;;;;;;15.98;7.03;;;6.40;99.90;;;;;;5090934;28;20055;-91
2023/03/29 05:23:19;;;;;;;14.90;7.43;;;6.40;99.90;;;;;;5074491;28;20564;-90
2023/03/29 05:25:47;;;;;;;15.27;7.47;;;6.40;99.90;;;;;;5073645;28;20039;-91
2023/03/29 05:28:13;;;;;;;14.30;7.15;;;6.40;99.90;;;;;;5074413;28;20028;-90
2023/03/29 05:30:39;;;;;;;13.68;6.10;;;6.40;99.90;;;;;;5091471;28;20093;-91
2023/03/29 05:33:05;;;;;;;14.10;6.93;;;6.40;99.90;;;;;;5073079;28;20044;-91
2023/03/29 05:35:31;;;;;;;12.13;6.13;;;6.40;99.90;;;;;;5074223;28;20054;-91
2023/03/29 05:37:57;;;;;;;12.57;6.40;;;6.40;99.90;;;;;;5074504;28;20508;-91
2023/03/29 05:40:26;;;;;;;13.85;7.15;;;6.40;99.90;;;;;;5073211;28;20067;-91
2023/03/29 05:42:52;;;;;;;16.10;7.85;;;6.40;99.90;;;;;;5074996;28;20507;-91
2023/03/29 05:45:18;;;;;;;15.70;7.53;;;6.40;99.90;;;;;;5073658;28;20040;-91
2023/03/29 05:47:45;;;;;;;14.25;7.07;;;6.30;99.90;;;;;;5091757;28;20062;-92
2023/03/29 05:50:11;;;;;;;12.70;7.05;;;6.40;99.90;;;;;;5074009;28;20039;-92
2023/03/29 05:52:37;;;;;;;14.02;7.18;;;6.40;99.90;;;;;;5074062;28;20032;-91
2023/03/29 05:55:04;;;;;;;13.63;7.70;;;6.40;99.90;;;;;;5073253;28;20119;-92
2023/03/29 05:57:30;;;;;;;13.90;7.60;;;6.40;99.90;;;;;;5073104;28;20042;-92
2023/03/29 05:59:55;;;;;;;15.50;6.97;;;6.40;99.90;;;;;;5090552;28;20036;-91
2023/03/29 06:02:21;;;;;;;17.33;7.40;;;6.40;99.90;;;;;;5073023;28;20425;-92
2023/03/29 06:04:47;;;;;;;16.63;7.57;;;6.40;99.90;;;;;;5073418;28;20097;-92
2023/03/29 06:07:13;;;;;;;15.40;7.38;;;6.40;99.90;;;;;;5089699;28;20036;-92
2023/03/29 06:09:39;;;;;;;15.02;7.50;;;6.40;99.90;;;;;;5073536;28;20079;-92
2023/03/29 06:12:06;;;;;;;12.90;6.75;;;6.40;99.90;;;;;;5103155;28;20036;-92
2023/03/29 06:14:32;;;;;;;14.80;6.22;;;6.50;99.90;;;;;;5089104;28;20047;-91
2023/03/29 06:16:59;;;;;;;17.90;7.35;;;6.50;99.90;;;;;;5073820;28;20043;-92
2023/03/29 06:19:24;;;;;;;14.02;7.13;;;6.50;99.90;;;;;;5072692;28;20119;-92
2023/03/29 06:21:52;;;;;;;16.63;7.50;;;6.50;99.90;;;;;;5073741;28;20119;-91
2023/03/29 06:24:18;;;;;;;13.95;6.72;;;6.50;99.90;;;;;;5090743;28;20043;-91
2023/03/29 06:26:43;;;;;;;16.25;7.38;;;6.50;99.90;;;;;;5073357;28;20120;-92
2023/03/29 06:29:09;;;;;;;13.73;6.82;;;6.60;99.90;;;;;;5088162;28;20032;-91
2023/03/29 06:31:35;;;;;;;12.82;6.70;;;6.60;99.90;;;;;;5058875;28;20413;-91
2023/03/29 06:34:03;;;;;;;11.98;7.03;;;6.60;99.90;;;;;;5072593;28;20040;-92
2023/03/29 06:36:29;;;;;;;13.80;7.05;;;6.60;99.90;;;;;;5073354;28;20036;-92
2023/03/29 06:38:54;;;;;;;13.27;6.65;;;6.60;99.90;;;;;;5089396;28;20047;-92
2023/03/29 06:41:20;;;;;;;13.23;7.20;;;6.60;99.90;;;;;;5073226;28;20035;-91
2023/03/29 06:43:46;;;;;;;13.88;6.75;;;6.70;99.90;;;;;;5089612;28;20509;-91
2023/03/29 06:46:12;;;;;;;16.42;7.70;;;6.70;99.90;;;;;;5090163;28;20032;-92
2023/03/29 06:48:39;;;;;;;14.20;6.80;;;6.70;99.90;;;;;;5089516;28;20036;-92
2023/03/29 06:51:06;;;;;;;14.85;6.63;;;6.70;99.90;;;;;;5073384;28;20385;-92
2023/03/29 06:53:32;;;;;;;12.90;6.80;;;6.80;99.90;;;;;;5072635;28;20071;-92
2023/03/29 06:55:59;;;;;;;13.18;6.50;;;6.80;99.90;;;;;;5073510;28;20044;-92
2023/03/29 06:58:26;;;;;;;13.10;6.68;;;6.80;99.90;;;;;;5071970;28;20032;-92
2023/03/29 07:00:52;;;;;;;18.92;7.57;;;6.90;99.90;;;;;;5089650;28;20107;-91
2023/03/29 07:03:22;;;;;;;12.32;6.38;;;6.90;99.90;;;;;;5072033;28;20044;-91
2023/03/29 07:05:50;;;;;;;14.48;6.40;;;7.00;99.90;;;;;;5072965;28;20074;-91
2023/03/29 07:08:17;;;;;;;16.45;6.70;;;7.00;99.90;;;;;;5089633;28;20093;-93
2023/03/29 07:10:51;;;;;;;11.55;6.13;;;7.00;99.90;;;;;;5061681;28;20127;-91
2023/03/29 07:13:17;;;;;;;13.85;6.35;;;7.10;99.90;;;;;;5078970;28;20044;-92
2023/03/29 07:15:43;;;;;;;11.00;5.82;;;7.10;99.90;;;;;;5105836;28;20486;-91
2023/03/29 07:18:11;;;;;;;13.10;6.57;;;7.10;99.90;;;;;;5089687;28;20569;-92
2023/03/29 07:20:37;;;;;;;18.10;6.82;;;7.10;99.90;;;;;;5071894;28;20374;-91
2023/03/29 07:23:03;;;;;;;15.00;6.15;;;7.10;99.90;;;;;;5072570;28;20032;-91
2023/03/29 07:25:29;;;;;;;11.60;5.80;;;7.20;99.90;;;;;;5087254;28;20035;-91
2023/03/29 07:27:55;;;;;;;11.50;6.22;;;7.20;99.90;;;;;;5086944;28;20173;-91
2023/03/29 07:30:26;;;;;;;13.90;6.18;;;7.20;99.90;;;;;;5105959;28;20102;-91
2023/03/29 07:32:52;;;;;;;12.45;5.47;;;7.20;99.90;;;;;;5072889;28;20574;-92
2023/03/29 07:35:19;;;;;;;14.10;6.57;;;7.20;99.90;;;;;;5075994;28;20128;-92
2023/03/29 07:37:46;;;;;;;11.40;5.88;;;7.30;99.90;;;;;;5075097;28;20032;-91
2023/03/29 07:40:17;;;;;;;11.02;5.35;;;7.30;99.90;;;;;;5075773;28;20040;-88
2023/03/29 07:42:47;;;;;;;15.45;5.63;;;7.30;99.90;;;;;;5093310;28;20043;-91
2023/03/29 07:45:15;;;;;;;11.57;5.45;;;7.30;99.90;;;;;;5074945;28;20081;-90
2023/03/29 07:47:46;;;;;;;13.15;5.28;;;7.40;99.90;;;;;;5092124;28;20090;-91
2023/03/29 07:50:13;;;;;;;13.00;5.25;;;7.30;99.90;;;;;;5109626;28;20065;-91
2023/03/29 07:52:39;;;;;;;14.82;6.03;;;7.40;99.90;;;;;;5075231;28;20052;-91
2023/03/29 07:55:07;;;;;;;13.82;5.43;;;7.40;99.90;;;;;;5075604;28;20078;-91
2023/03/29 07:57:34;;;;;;;10.63;4.93;;;7.40;99.90;;;;;;5074498;28;20044;-91
2023/03/29 08:00:00;;;;;;;9.85;5.13;;;7.40;99.90;;;;;;5108949;28;20040;-90
2023/03/29 08:02:27;;;;;;;11.88;5.07;;;7.40;99.90;;;;;;5091652;28;20043;-91
2023/03/29 08:04:53;;;;;;;11.88;5.25;;;7.40;99.90;;;;;;5075550;28;20036;-91
2023/03/29 08:07:19;;;;;;;11.38;5.15;;;7.50;99.90;;;;;;5074522;28;20412;-91
2023/03/29 08:09:45;;;;;;;13.35;5.05;;;7.50;99.90;;;;;;5091308;28;20036;-91
2023/03/29 08:12:11;;;;;;;11.63;5.05;;;7.50;99.90;;;;;;5075427;28;20508;-91
2023/03/29 08:14:37;;;;;;;9.75;4.65;;;7.50;99.90;;;;;;5075248;28;20096;-91
2023/03/29 08:17:03;;;;;;;9.70;5.05;;;7.60;99.90;;;;;;5074489;28;20447;-91
2023/03/29 08:19:29;;;;;;;10.95;5.07;;;7.60;99.90;;;;;;5075124;28;20634;-91
2023/03/29 08:21:55;;;;;;;10.38;4.93;;;7.70;99.90;;;;;;5074580;28;20062;-91
2023/03/29 08:24:21;;;;;;;9.63;4.70;;;7.70;99.90;;;;;;5091777;28;20501;-91
2023/03/29 08:26:47;;;;;;;13.75;5.20;;;7.70;99.90;;;;;;5075128;28;20115;-91
2023/03/29 08:29:13;;;;;;;9.27;4.88;;;7.80;99.90;;;;;;5074655;28;20048;-91
2023/03/29 08:31:39;;;;;;;10.13;5.43;;;7.80;99.90;;;;;;5107834;28;20051;-91
2023/03/29 08:34:05;;;;;;;13.38;5.78;;;7.90;99.90;;;;;;5073815;28;20078;-91
2023/03/29 08:36:31;;;;;;;11.15;4.65;;;7.90;99.90;;;;;;5075213;28;20040;-90
2023/03/29 08:38:56;;;;;;;11.07;5.07;;;7.90;99.90;;;;;;5090726;28;20048;-91
2023/03/29 08:41:56;;;;;;;10.55;5.22;;;7.90;99.90;;;;;;5074909;28;20032;-91
2023/03/29 08:44:26;;;;;;;10.30;4.90;;;8.00;99.90;;;;;;5089941;28;20042;-92
2023/03/29 08:47:04;;;;;;;11.40;5.18;;;8.10;99.90;;;;;;5069998;28;20036;-91
2023/03/29 08:49:30;;;;;;;12.27;4.75;;;8.10;99.90;;;;;;5079918;28;20037;-91
2023/03/29 08:52:01;;;;;;;10.70;4.97;;;8.20;99.90;;;;;;5068063;28;20114;-91
2023/03/29 08:54:41;;;;;;;11.60;5.22;;;8.20;99.90;;;;;;5067696;28;20041;-90
2023/03/29 08:57:22;;;;;;;11.02;4.75;;;8.30;99.90;;;;;;5073712;28;20036;-91
2023/03/29 08:59:51;;;;;;;12.55;5.05;;;8.40;99.90;;;;;;5090177;28;20113;-90
2023/03/29 09:02:22;;;;;;;14.15;5.05;;;8.40;99.90;;;;;;5074746;28;20039;-91
2023/03/29 09:04:51;;;;;;;10.90;4.75;;;8.40;99.90;;;;;;5066413;28;20055;-92
2023/03/29 09:07:17;;;;;;;13.68;5.78;;;8.50;99.90;;;;;;5074237;28;20075;-92
2023/03/29 09:09:43;;;;;;;10.52;4.72;;;8.60;99.90;;;;;;5084331;28;20053;-92
2023/03/29 09:12:48;;;;;;;11.15;4.60;;;8.70;99.90;;;;;;5100776;28;20053;-92
2023/03/29 09:15:25;;;;;;;10.38;5.25;;;8.70;99.90;;;;;;5064350;28;20032;-92
2023/03/29 09:18:20;;;;;;;9.02;4.55;;;8.80;99.90;;;;;;5081391;28;20040;-91
2023/03/29 09:21:05;;;;;;;11.25;4.90;;;8.80;99.90;;;;;;5113917;27;20119;-91
2023/03/29 09:23:53;;;;;;;9.43;4.63;;;8.90;99.90;;;;;;5067193;28;20032;-91
2023/03/29 09:26:27;;;;;;;10.02;5.47;;;8.90;99.90;;;;;;5081076;28;20032;-91
2023/03/29 09:28:59;;;;;;;12.93;5.32;;;8.90;99.90;;;;;;5083805;28;20501;-91
2023/03/29 09:31:36;;;;;;;10.93;5.13;;;9.00;99.90;;;;;;5112506;27;20090;-92
2023/03/29 09:34:14;;;;;;;13.73;5.03;;;9.10;99.90;;;;;;5083758;28;20409;-91
2023/03/29 09:36:58;;;;;;;10.73;5.15;;;9.10;99.90;;;;;;5063502;28;20379;-92
2023/03/29 09:39:27;;;;;;;12.18;5.57;;;9.20;99.90;;;;;;5083986;28;20493;-92
2023/03/29 09:42:02;;;;;;;10.75;4.78;;;9.20;99.90;;;;;;5100013;28;20042;-92
2023/03/29 09:44:40;;;;;;;11.10;5.45;;;9.30;99.90;;;;;;5079920;28;20040;-93
2023/03/29 09:47:25;;;;;;;14.02;6.30;;;9.30;99.90;;;;;;5064685;28;20134;-92
2023/03/29 09:49:58;;;;;;;11.23;4.97;;;9.30;99.90;;;;;;5053351;28;20033;-93
2023/03/29 09:52:23;;;;;;;13.70;6.00;;;9.40;99.90;;;;;;5079538;28;20067;-92
2023/03/29 09:54:50;;;;;;;12.25;5.75;;;9.40;99.90;;;;;;5090312;28;20082;-91
2023/03/29 09:57:18;;;;;;;13.77;5.80;;;9.50;99.90;;;;;;5073559;28;20043;-92
2023/03/29 09:59:45;;;;;;;15.10;5.78;;;9.50;99.90;;;;;;5072902;28;20040;-93
2023/03/29 10:02:12;;;;;;;14.68;5.97;;;9.60;99.90;;;;;;5074152;28;20043;-94
2023/03/29 10:04:41;;;;;;;13.45;6.38;;;9.70;99.90;;;;;;5073243;28;20032;-93
2023/03/29 10:07:13;;;;;;;14.70;6.22;;;9.70;99.90;;;;;;5090886;28;20071;-92
2023/03/29 10:09:43;;;;;;;13.82;6.07;;;9.80;99.90;;;;;;5073277;28;20044;-93
2023/03/29 10:12:11;;;;;;;12.75;6.13;;;9.80;99.90;;;;;;5071642;28;20040;-93
2023/03/29 10:14:42;;;;;;;14.32;6.50;;;9.80;99.90;;;;;;5072572;28;20123;-94
2023/03/29 10:17:25;;;;;;;14.10;6.65;;;9.80;99.90;;;;;;5089170;28;20062;-93
2023/03/29 10:19:55;;;;;;;12.00;6.55;;;9.80;99.90;;;;;;5065389;28;20036;-93
2023/03/29 10:22:40;;;;;;;16.02;6.65;;;9.90;99.90;;;;;;5080831;28;20037;-94
2023/03/29 10:25:15;;;;;;;16.55;6.53;;;9.90;99.90;;;;;;5063801;28;20036;-94
2023/03/29 10:27:43;;;;;;;12.25;5.97;;;10.00;99.90;;;;;;5064358;28;20127;-93
2023/03/29 10:30:22;;;;;;;12.55;6.68;;;10.10;99.90;;;;;;5081588;28;20064;-93
2023/03/29 10:32:55;;;;;;;12.38;6.60;;;10.10;99.90;;;;;;5061918;28;20086;-94
2023/03/29 10:35:36;;;;;;;13.73;6.53;;;10.10;99.90;;;;;;5094437;28;20129;-94
2023/03/29 10:38:06;;;;;;;12.48;6.47;;;10.20;99.90;;;;;;5083676;28;20040;-91
2023/03/29 10:40:34;;;;;;;11.60;6.43;;;10.30;99.90;;;;;;5072694;28;20040;-92
2023/03/29 10:43:11;;;;;;;13.32;6.20;;;10.30;99.90;;;;;;5073433;28;20042;-93
2023/03/29 10:45:38;;;;;;;13.52;6.85;;;10.40;99.90;;;;;;5053881;28;20040;-92
2023/03/29 10:48:05;;;;;;;12.15;6.22;;;10.40;99.90;;;;;;5069900;28;20485;-94
2023/03/29 10:50:33;;;;;;;11.13;5.97;;;10.50;99.90;;;;;;5071716;28;20040;-92
2023/03/29 10:53:01;;;;;;;14.45;6.35;;;10.50;99.90;;;;;;5089387;28;20036;-93
2023/03/29 10:55:39;;;;;;;12.73;6.43;;;10.60;99.90;;;;;;5088622;28;20453;-93
2023/03/29 10:58:37;;;;;;;13.07;6.53;;;10.70;99.90;;;;;;5071962;28;20036;-93
2023/03/29 11:01:03;;;;;;;14.90;6.68;;;10.80;99.90;;;;;;5073117;28;20391;-92
2023/03/29 11:04:06;;;;;;;12.80;6.55;;;10.90;99.90;;;;;;5072055;28;20619;-93
2023/03/29 11:06:39;;;;;;;11.45;5.70;;;10.90;99.90;;;;;;5072417;28;20036;-91
2023/03/29 11:09:31;;;;;;;13.15;6.45;;;11.00;99.90;;;;;;5069463;28;20036;-92
2023/03/29 11:12:26;;;;;;;12.63;6.90;;;11.10;99.90;;;;;;5061375;28;20048;-93
2023/03/29 11:15:16;;;;;;;10.95;5.55;;;11.20;99.90;;;;;;5029244;28;20041;-93
2023/03/29 11:18:03;;;;;;;11.88;6.45;;;11.40;99.90;;;;;;5017282;28;20033;-93
2023/03/29 11:20:45;;;;;;;11.02;6.07;;;11.40;99.90;;;;;;5034665;28;20049;-93
2023/03/29 11:23:21;;;;;;;11.37;6.53;;;11.50;99.90;;;;;;5019093;28;20041;-93
2023/03/29 11:26:11;;;;;;;11.63;5.75;;;11.60;99.90;;;;;;5018746;28;20121;-93
2023/03/29 11:28:37;;;;;;;12.85;6.75;;;11.70;99.90;;;;;;5017435;28;20094;-93
2023/03/29 11:31:45;;;;;;;13.52;6.70;;;11.80;99.90;;;;;;5014396;28;20033;-93
2023/03/29 11:34:30;;;;;;;12.85;6.68;;;11.90;99.90;;;;;;5009828;28;20547;-93
2023/03/29 11:37:18;;;;;;;14.00;6.78;;;12.00;99.90;;;;;;5034263;28;20033;-93
2023/03/29 11:39:50;;;;;;;14.10;6.47;;;12.10;99.90;;;;;;5016392;28;20214;-93
2023/03/29 11:42:22;;;;;;;11.27;6.72;;;12.10;99.90;;;;;;5000997;28;20538;-93
2023/03/29 11:44:50;;;;;;;12.07;5.65;;;12.20;99.90;;;;;;5007512;28;20064;-93
2023/03/29 11:47:20;;;;;;;10.70;5.57;;;12.30;99.90;;;;;;5018919;28;20071;-93
2023/03/29 11:49:53;;;;;;;10.98;5.25;;;12.40;99.90;;;;;;5034693;28;20080;-93
2023/03/29 11:52:45;;;;;;;13.10;5.78;;;12.40;99.90;;;;;;5048432;28;20697;-94
2023/03/29 11:55:33;;;;;;;12.70;6.05;;;12.50;99.90;;;;;;5071052;28;20055;-94
2023/03/29 11:58:26;;;;;;;10.52;5.55;;;12.60;99.90;;;;;;5075084;28;20051;-93
2023/03/29 12:01:00;;;;;;;10.60;5.38;;;12.70;99.90;;;;;;5075930;28;20044;-94
2023/03/29 12:04:00;;;;;;;10.18;5.97;;;12.80;99.90;;;;;;5075825;28;20428;-93
2023/03/29 12:06:38;;;;;;;10.25;5.38;;;12.80;99.90;;;;;;4996207;28;20073;-93
2023/03/29 12:09:11;;;;;;;12.13;7.93;;;12.80;99.90;;;;;;4991583;28;20042;-93
2023/03/29 12:12:02;;;;;;;13.90;6.72;;;12.90;99.90;;;;;;4994371;28;20519;-93
2023/03/29 12:14:33;;;;;;;11.82;5.75;;;13.00;99.90;;;;;;4995629;28;20046;-93
2023/03/29 12:17:03;;;;;;;14.00;6.72;;;13.10;99.90;;;;;;4997403;28;20053;-93
2023/03/29 12:19:37;;;;;;;10.73;5.60;;;13.10;99.90;;;;;;4972594;28;20177;-94
2023/03/29 12:22:06;;;;;;;11.70;5.32;;;13.10;99.90;;;;;;4989615;28;20574;-93
2023/03/29 12:24:37;;;;;;;12.05;6.20;;;13.00;99.90;;;;;;4986432;28;20053;-93
2023/03/29 12:27:11;;;;;;;13.38;6.28;;;13.00;99.90;;;;;;5027623;28;20053;-93
2023/03/29 12:29:50;;;;;;;12.98;6.75;;;13.10;99.90;;;;;;5010449;28;20104;-93
2023/03/29 12:32:54;;;;;;;12.00;6.50;;;13.10;99.90;;;;;;4994967;28;20701;-93
2023/03/29 12:35:38;;;;;;;11.93;6.07;;;13.00;99.90;;;;;;4974171;28;20249;-94
2023/03/29 12:38:12;;;;;;;14.23;6.88;;;13.10;99.90;;;;;;4974332;28;20050;-94
2023/03/29 12:40:46;;;;;;;11.32;6.30;;;13.10;99.90;;;;;;4999177;28;20037;-94
2023/03/29 12:43:39;;;;;;;12.32;6.55;;;13.10;99.90;;;;;;5021443;28;20520;-93
2023/03/29 12:46:10;;;;;;;;;;;13.10;99.90;;;;;;5075625;28;20097;-93
2023/03/29 12:48:40;;;;;;;15.02;6.50;;;13.20;99.90;;;;;;5074548;28;19938;-93
2023/03/29 12:51:21;;;;;;;11.55;6.30;;;13.20;99.90;;;;;;5074646;28;20040;-94
2023/03/29 12:53:51;;;;;;;10.32;5.85;;;13.20;99.90;;;;;;5107989;28;20122;-94
2023/03/29 12:56:20;;;;;;;13.15;6.85;;;13.20;99.90;;;;;;5091818;28;20642;-95
2023/03/29 12:58:51;;;;;;;13.50;6.82;;;13.20;99.90;;;;;;5072367;28;20043;-94
2023/03/29 13:01:35;;;;;;;14.15;7.13;;;13.30;99.90;;;;;;5089321;28;20054;-94
2023/03/29 13:04:20;;;;;;;16.50;8.07;;;13.30;99.90;;;;;;5098097;28;20043;-93
2023/03/29 13:06:45;;;;;;;11.80;6.38;;;13.30;99.90;;;;;;5073960;28;20042;-93
2023/03/29 13:09:34;;;;;;;12.60;6.53;;;13.40;99.90;;;;;;5073621;28;20044;-93